Аэропорт
Челябинск (USCC)

 USCC / CEK
ЗЦ Екатеринбург
Екатеринбург (USSV)
Челябинск (USCC)
 55.30580, 61.50330  / 769 ft

 TAF USCC 050800Z 0509/0609 16003G08MPS CAVOK
USCC_j_0220
показать схемы
Название сценария Тип сценария Flight Simulator 9 Flight Simulator X Prepar3D v2 Prepar3D v3 Prepar3D v4 xPlane
Chelyabinsk USCC (P3Dv4.4+) Автор: Z25Team бесплатный
USCC-Chelyabinsk_FS9 Автор: Z25Team бесплатный


2020 © VATRUS division (Privacy Policy)